createdAt,value
2019-01-15T00:00:21.120Z,3.57
2019-01-15T00:02:48.120Z,2.70
2019-01-15T00:05:15.066Z,2.90
2019-01-15T00:07:42.031Z,2.90
2019-01-15T00:10:09.270Z,2.60
2019-01-15T00:12:36.275Z,2.47
2019-01-15T00:15:04.074Z,2.77
2019-01-15T00:17:31.103Z,2.60
2019-01-15T00:19:58.067Z,3.00
2019-01-15T00:22:25.013Z,3.23
2019-01-15T00:24:51.965Z,3.30
2019-01-15T00:27:18.902Z,3.50
2019-01-15T00:29:45.857Z,3.57
2019-01-15T00:32:12.814Z,3.10
2019-01-15T00:34:39.813Z,2.83
2019-01-15T00:37:07.634Z,3.30
2019-01-15T00:39:34.565Z,3.30
2019-01-15T00:42:01.576Z,3.13
2019-01-15T00:44:28.871Z,3.60
2019-01-15T00:46:55.822Z,3.63
2019-01-15T00:49:22.771Z,3.87
2019-01-15T00:51:50.675Z,4.00
2019-01-15T00:54:17.630Z,4.53
2019-01-15T00:56:45.614Z,2.97
2019-01-15T00:59:12.561Z,3.03
2019-01-15T01:01:39.530Z,3.27
2019-01-15T01:04:06.526Z,3.90
2019-01-15T01:06:33.490Z,3.53
2019-01-15T01:09:00.477Z,2.73
2019-01-15T01:11:27.435Z,3.20
2019-01-15T01:13:54.361Z,2.93
2019-01-15T01:16:21.288Z,3.53
2019-01-15T01:18:48.249Z,3.43
2019-01-15T01:26:14.510Z,3.47
2019-01-15T01:28:41.461Z,2.87
2019-01-15T01:31:08.440Z,4.43
2019-01-15T01:33:35.429Z,2.57
2019-01-15T01:36:02.454Z,3.77
2019-01-15T01:38:29.402Z,3.30
2019-01-15T01:40:56.386Z,2.67
2019-01-15T01:43:23.566Z,3.53
2019-01-15T01:45:50.535Z,3.27
2019-01-15T01:48:17.542Z,3.60
2019-01-15T01:50:44.527Z,2.40
2019-01-15T01:53:11.559Z,2.67
2019-01-15T01:55:38.477Z,2.90
2019-01-15T01:58:05.422Z,3.37
2019-01-15T02:00:32.409Z,3.40
2019-01-15T02:02:59.344Z,3.43
2019-01-15T02:05:26.295Z,3.30
2019-01-15T02:07:53.259Z,2.87
2019-01-15T02:10:20.200Z,4.97
2019-01-15T02:12:47.577Z,3.77
2019-01-15T02:15:17.894Z,3.53
2019-01-15T02:17:44.904Z,4.67
2019-01-15T02:20:13.258Z,5.53
2019-01-15T02:22:40.229Z,4.43
2019-01-15T02:25:07.414Z,4.50
2019-01-15T02:27:34.412Z,3.73
2019-01-15T02:30:01.414Z,2.90
2019-01-15T02:32:28.406Z,4.10
2019-01-15T02:34:55.392Z,2.93
2019-01-15T02:37:22.378Z,3.97
2019-01-15T02:39:51.022Z,2.90
2019-01-15T02:42:18.010Z,3.60
2019-01-15T02:44:44.949Z,2.87
2019-01-15T02:47:12.059Z,2.47
2019-01-15T02:49:39.029Z,3.27
2019-01-15T02:52:06.949Z,3.27
2019-01-15T02:54:33.895Z,2.50
2019-01-15T02:57:00.841Z,3.23
2019-01-15T02:59:28.618Z,3.37
2019-01-15T03:01:56.268Z,2.87
2019-01-15T03:04:23.284Z,2.90
2019-01-15T03:06:50.328Z,3.23
2019-01-15T03:09:17.516Z,4.47
2019-01-15T03:11:45.080Z,4.67
2019-01-15T03:14:12.117Z,3.67
2019-01-15T03:16:39.065Z,3.33
2019-01-15T03:19:06.079Z,3.37
2019-01-15T03:21:33.058Z,3.07
2019-01-15T03:24:00.070Z,2.60
2019-01-15T03:26:27.117Z,3.10
2019-01-15T03:28:54.057Z,2.97
2019-01-15T03:31:21.092Z,3.13
2019-01-15T03:33:48.060Z,2.50
2019-01-15T03:36:15.053Z,3.37
2019-01-15T03:38:42.006Z,2.97
2019-01-15T03:41:09.020Z,3.43
2019-01-15T03:43:36.023Z,3.40
2019-01-15T03:46:04.514Z,3.13
2019-01-15T03:48:30.019Z,3.10
2019-01-15T03:50:56.986Z,2.70
2019-01-15T03:53:23.999Z,3.20
2019-01-15T03:55:50.973Z,2.30
2019-01-15T03:58:18.205Z,3.07
2019-01-15T04:00:45.360Z,2.70
2019-01-15T04:03:12.327Z,2.73
2019-01-15T04:05:39.304Z,2.63
2019-01-15T04:08:06.266Z,2.60
2019-01-15T04:10:33.233Z,2.60
2019-01-15T04:13:00.219Z,3.07
2019-01-15T04:15:27.216Z,3.17
2019-01-15T04:17:54.218Z,3.20
2019-01-15T04:20:21.165Z,2.93
2019-01-15T04:22:48.090Z,2.87
2019-01-15T04:25:15.114Z,3.40
2019-01-15T04:27:42.115Z,2.77
2019-01-15T04:30:12.155Z,2.77
2019-01-15T04:32:39.952Z,2.87
2019-01-15T04:35:07.222Z,3.33
2019-01-15T04:37:34.213Z,3.30
2019-01-15T04:40:01.248Z,3.73
2019-01-15T04:42:28.147Z,3.10
2019-01-15T04:44:56.203Z,3.73
2019-01-15T04:47:23.160Z,3.10
2019-01-15T04:49:50.155Z,2.73
2019-01-15T04:52:17.136Z,6.20
2019-01-15T04:54:44.114Z,3.77
2019-01-15T04:57:11.165Z,3.50
2019-01-15T04:59:38.396Z,3.57
2019-01-15T05:02:05.407Z,3.23
2019-01-15T05:04:32.377Z,3.83
2019-01-15T05:06:59.392Z,3.00
2019-01-15T05:09:26.377Z,3.30
2019-01-15T05:11:53.310Z,3.17
2019-01-15T05:14:20.449Z,3.20
2019-01-15T05:16:47.401Z,3.17
2019-01-15T05:19:14.424Z,3.83
2019-01-15T05:21:41.418Z,5.20
2019-01-15T05:24:08.470Z,2.63
2019-01-15T05:26:35.462Z,4.43
2019-01-15T05:29:02.476Z,3.77
2019-01-15T05:31:29.485Z,4.27
2019-01-15T05:33:56.476Z,5.47
2019-01-15T05:36:23.390Z,4.83
2019-01-15T05:38:50.402Z,4.07
2019-01-15T05:41:17.334Z,3.10
2019-01-15T05:43:44.331Z,3.23
2019-01-15T05:46:11.381Z,3.10
2019-01-15T05:48:38.619Z,3.60
2019-01-15T05:51:15.260Z,2.80
2019-01-15T05:53:42.307Z,3.87
2019-01-15T05:56:09.662Z,2.77
2019-01-15T05:58:36.461Z,4.77
2019-01-15T06:01:03.659Z,4.00
2019-01-15T06:03:30.865Z,6.30
2019-01-15T06:05:57.894Z,5.23
2019-01-15T06:08:25.045Z,4.57
2019-01-15T06:10:52.148Z,3.77
2019-01-15T06:13:19.141Z,3.77
2019-01-15T06:15:46.246Z,5.27
2019-01-15T06:18:13.389Z,6.50
2019-01-15T06:20:40.425Z,4.50
2019-01-15T06:23:07.593Z,3.17
2019-01-15T06:25:34.731Z,3.20
2019-01-15T06:28:01.774Z,3.07
2019-01-15T06:30:28.854Z,3.33
2019-01-15T06:32:55.938Z,3.93
2019-01-15T06:35:22.979Z,4.30
2019-01-15T06:37:51.481Z,4.07
2019-01-15T06:40:17.068Z,3.23
2019-01-15T06:42:44.082Z,4.87
2019-01-15T06:45:14.481Z,3.83
2019-01-15T06:47:41.581Z,6.13
2019-01-15T06:50:09.013Z,3.77
2019-01-15T06:52:36.087Z,4.27
2019-01-15T06:55:03.185Z,4.67
2019-01-15T06:57:30.217Z,5.57
2019-01-15T06:59:57.206Z,4.60
2019-01-15T07:02:24.216Z,3.80
2019-01-15T07:04:51.290Z,4.03
2019-01-15T07:07:18.278Z,4.07
2019-01-15T07:09:45.317Z,5.60
2019-01-15T07:12:12.313Z,5.03
2019-01-15T07:14:39.414Z,5.23
2019-01-15T07:17:06.436Z,5.63
2019-01-15T07:19:33.506Z,6.07
2019-01-15T07:22:00.526Z,9.07
2019-01-15T07:24:27.555Z,7.87
2019-01-15T07:26:54.578Z,7.77
2019-01-15T07:29:21.921Z,9.97
2019-01-15T07:31:49.009Z,5.60
2019-01-15T07:34:16.025Z,3.67
2019-01-15T07:36:43.028Z,4.33
2019-01-15T07:39:10.861Z,3.97
2019-01-15T07:41:37.983Z,5.20
2019-01-15T07:44:05.040Z,4.57
2019-01-15T07:46:32.172Z,3.40
2019-01-15T07:48:59.984Z,3.93
2019-01-15T07:51:27.037Z,4.37
2019-01-15T07:53:54.658Z,3.70
2019-01-15T07:56:21.670Z,3.33
2019-01-15T07:58:49.809Z,5.17
2019-01-15T08:01:17.446Z,6.63
2019-01-15T08:03:44.446Z,4.07
2019-01-15T08:06:12.111Z,5.53
2019-01-15T08:08:40.014Z,5.20
2019-01-15T08:11:07.168Z,3.17
2019-01-15T08:13:34.215Z,3.37
2019-01-15T08:16:01.197Z,3.90
2019-01-15T08:18:28.251Z,4.67
2019-01-15T08:20:55.293Z,4.20
2019-01-15T08:23:22.281Z,3.73
2019-01-15T08:25:49.287Z,3.70
2019-01-15T08:28:16.248Z,5.17
2019-01-15T08:30:43.305Z,3.60
2019-01-15T08:33:10.369Z,3.60
2019-01-15T08:35:37.518Z,5.67
2019-01-15T08:38:04.758Z,4.03
2019-01-15T08:40:31.780Z,6.00
2019-01-15T08:42:58.796Z,5.60
2019-01-15T08:45:25.789Z,4.60
2019-01-15T08:47:58.264Z,4.90
2019-01-15T08:50:25.930Z,5.47
2019-01-15T08:52:53.718Z,4.73
2019-01-15T08:55:20.751Z,4.03
2019-01-15T08:57:47.866Z,3.83
2019-01-15T09:00:15.018Z,4.00
2019-01-15T09:02:42.066Z,3.10
2019-01-15T09:05:09.112Z,3.47
2019-01-15T09:07:36.175Z,3.97
2019-01-15T09:10:04.581Z,3.57
2019-01-15T09:12:31.687Z,4.90
2019-01-15T09:14:58.735Z,3.53
2019-01-15T09:17:25.879Z,3.83
2019-01-15T09:19:52.940Z,5.70
2019-01-15T09:22:19.984Z,6.53
2019-01-15T09:24:46.965Z,3.90
2019-01-15T09:27:14.028Z,4.73
2019-01-15T09:29:41.042Z,4.77
2019-01-15T09:32:09.896Z,5.27
2019-01-15T09:34:36.928Z,3.33
2019-01-15T09:37:04.992Z,4.07
2019-01-15T09:39:32.730Z,4.23
2019-01-15T09:42:01.007Z,4.20
2019-01-15T09:44:34.099Z,4.63
2019-01-15T09:46:55.641Z,5.33
2019-01-15T09:49:22.699Z,5.63
2019-01-15T09:51:49.667Z,5.33
2019-01-15T09:54:16.659Z,4.13
2019-01-15T09:56:43.705Z,4.80
2019-01-15T09:59:10.779Z,4.70
2019-01-15T10:01:38.051Z,4.43
2019-01-15T10:04:05.079Z,4.47
2019-01-15T10:06:32.141Z,4.17
2019-01-15T10:08:59.523Z,3.80
2019-01-15T10:11:26.575Z,4.57
2019-01-15T10:13:53.559Z,7.03
2019-01-15T10:16:20.622Z,6.63
2019-01-15T10:18:47.642Z,6.63
2019-01-15T10:21:14.586Z,5.43
2019-01-15T10:23:42.634Z,4.67
2019-01-15T10:26:09.656Z,5.07
2019-01-15T10:28:41.865Z,6.73
2019-01-15T10:33:24.714Z,8.13
2019-01-15T10:35:56.456Z,4.83
2019-01-15T10:38:36.371Z,8.43
2019-01-15T10:41:04.699Z,6.37
2019-01-15T10:43:32.867Z,4.40
2019-01-15T10:46:02.755Z,3.87
2019-01-15T10:48:30.865Z,8.13
2019-01-15T10:50:57.909Z,4.40
2019-01-15T10:53:30.539Z,7.37
2019-01-15T10:55:57.816Z,4.37
2019-01-15T10:58:29.922Z,5.57
2019-01-15T11:00:56.951Z,5.17
2019-01-15T11:03:24.114Z,6.63
2019-01-15T11:05:51.194Z,6.30
2019-01-15T11:08:18.209Z,9.43
2019-01-15T11:10:45.200Z,7.53
2019-01-15T11:13:12.361Z,5.63
2019-01-15T11:15:43.087Z,4.73
2019-01-15T11:18:07.297Z,5.87
2019-01-15T11:20:34.332Z,9.30
2019-01-15T11:23:01.465Z,7.43
2019-01-15T11:25:30.919Z,7.53
2019-01-15T11:28:03.651Z,8.23
2019-01-15T11:30:30.769Z,6.10
2019-01-15T11:32:59.365Z,7.10
2019-01-15T11:35:26.513Z,6.27
2019-01-15T11:37:54.060Z,8.13
2019-01-15T11:40:21.210Z,6.97
2019-01-15T11:42:48.200Z,8.93
2019-01-15T11:45:15.897Z,6.67
2019-01-15T11:47:42.955Z,4.67
2019-01-15T11:50:12.857Z,6.50
2019-01-15T11:52:40.643Z,7.53
2019-01-15T11:55:08.266Z,6.70
2019-01-15T11:57:35.248Z,7.70
2019-01-15T12:00:02.338Z,7.13
2019-01-15T12:02:33.982Z,6.10
2019-01-15T12:05:08.556Z,7.90
2019-01-15T12:07:46.059Z,9.13
2019-01-15T12:10:26.535Z,6.67
2019-01-15T12:13:03.521Z,6.57
2019-01-15T12:15:36.152Z,5.70
2019-01-15T12:18:10.781Z,6.77
2019-01-15T12:20:44.341Z,5.53
2019-01-15T12:24:19.009Z,8.70
2019-01-15T12:26:51.583Z,7.83
2019-01-15T12:29:24.924Z,6.70
2019-01-15T12:32:30.612Z,5.80
2019-01-15T12:35:03.003Z,6.70
2019-01-15T12:37:35.786Z,7.30
2019-01-15T12:40:08.058Z,6.30
2019-01-15T12:44:44.990Z,7.97
2019-01-15T12:47:17.223Z,6.87
2019-01-15T12:51:53.004Z,7.50
2019-01-15T12:54:26.287Z,7.07
2019-01-15T12:56:58.907Z,6.90
2019-01-15T12:59:34.269Z,7.87
2019-01-15T13:02:08.754Z,7.67
2019-01-15T13:04:41.955Z,8.37
2019-01-15T13:07:33.590Z,7.57
2019-01-15T13:10:06.369Z,8.10
2019-01-15T13:12:38.963Z,7.73
2019-01-15T13:15:12.809Z,8.90
2019-01-15T13:17:45.494Z,8.93
2019-01-15T13:20:34.863Z,10.03
2019-01-15T13:23:07.616Z,9.30
2019-01-15T13:25:42.082Z,9.93
2019-01-15T13:28:15.491Z,10.37
2019-01-15T13:30:48.247Z,10.30
2019-01-15T13:33:27.889Z,11.30
2019-01-15T13:36:00.627Z,11.27
2019-01-15T13:39:03.158Z,12.20
2019-01-15T13:41:35.839Z,12.73
2019-01-15T13:44:09.471Z,11.60
2019-01-15T13:46:44.508Z,10.87
2019-01-15T13:49:17.028Z,12.40
2019-01-15T13:51:51.446Z,11.50
2019-01-15T13:54:28.074Z,11.77
2019-01-15T13:57:00.835Z,12.07
2019-01-15T13:59:34.826Z,11.97
2019-01-15T14:02:07.567Z,11.87
2019-01-15T14:04:39.815Z,12.60
2019-01-15T14:07:12.360Z,12.83
2019-01-15T14:09:46.520Z,14.17
2019-01-15T14:12:18.959Z,15.53
2019-01-15T14:14:50.612Z,15.20
2019-01-15T14:17:55.709Z,14.73
2019-01-15T14:22:35.417Z,12.83
2019-01-15T14:25:41.368Z,12.90
2019-01-15T14:28:17.592Z,11.17
2019-01-15T14:30:51.959Z,12.93
2019-01-15T14:33:29.193Z,14.07
2019-01-15T14:36:03.721Z,14.33
2019-01-15T14:40:38.561Z,13.53
2019-01-15T14:43:11.276Z,12.67
2019-01-15T14:45:46.938Z,12.70
2019-01-15T14:48:24.218Z,12.83
2019-01-15T14:50:57.518Z,15.03
2019-01-15T14:53:29.900Z,13.43
2019-01-15T14:56:06.337Z,12.63
2019-01-15T14:58:38.980Z,13.27
2019-01-15T15:01:42.878Z,11.67
2019-01-15T15:04:16.368Z,14.23
2019-01-15T15:06:50.144Z,15.10
2019-01-15T15:09:31.903Z,14.33
2019-01-15T15:12:07.599Z,12.90
2019-01-15T15:14:42.099Z,14.50
2019-01-15T15:19:28.804Z,14.30
2019-01-15T15:24:03.166Z,13.60
2019-01-15T15:26:34.773Z,13.57
2019-01-15T15:30:05.074Z,13.97
2019-01-15T15:32:37.958Z,12.53
2019-01-15T15:35:12.789Z,13.13
2019-01-15T15:37:48.504Z,13.63
2019-01-15T15:41:20.636Z,13.53
2019-01-15T15:43:55.166Z,13.30
2019-01-15T15:48:35.036Z,14.00
2019-01-15T15:51:23.672Z,14.27
2019-01-15T15:53:59.262Z,15.17
2019-01-15T15:56:33.181Z,15.77
2019-01-15T15:59:05.840Z,14.17
2019-01-15T16:01:38.751Z,15.20
2019-01-15T16:04:20.449Z,15.10
2019-01-15T16:06:53.959Z,16.17
2019-01-15T16:09:26.735Z,16.50
2019-01-15T16:11:59.410Z,17.43
2019-01-15T16:14:30.993Z,16.37
2019-01-15T16:17:06.438Z,15.07
2019-01-15T16:20:41.473Z,14.63
2019-01-15T16:23:13.150Z,15.10
2019-01-15T16:26:46.032Z,14.30
2019-01-15T16:29:18.724Z,15.57
2019-01-15T16:31:54.208Z,13.80
2019-01-15T16:34:27.851Z,17.63
2019-01-15T16:37:31.794Z,15.63
2019-01-15T16:40:05.418Z,17.50
2019-01-15T16:42:38.131Z,18.30
2019-01-15T16:45:13.112Z,17.33
2019-01-15T16:47:47.274Z,15.90
2019-01-15T16:50:21.046Z,18.63
2019-01-15T16:52:56.576Z,16.50
2019-01-15T16:55:44.497Z,15.57
2019-01-15T16:58:45.421Z,15.80
2019-01-15T17:01:18.563Z,15.23
2019-01-15T17:03:53.942Z,19.57
2019-01-15T17:06:32.771Z,15.20
2019-01-15T17:09:39.611Z,16.00
2019-01-15T17:12:12.187Z,15.63
2019-01-15T17:14:45.890Z,16.53
2019-01-15T17:17:34.218Z,18.10
2019-01-15T17:20:08.408Z,18.10
2019-01-15T17:22:43.072Z,19.90
2019-01-15T17:25:31.819Z,16.80
2019-01-15T17:28:04.807Z,17.37
2019-01-15T17:30:36.590Z,14.67
2019-01-15T17:35:16.007Z,16.37
2019-01-15T17:37:48.966Z,17.13
2019-01-15T17:41:21.034Z,13.73
2019-01-15T17:43:56.497Z,16.43
2019-01-15T17:46:41.084Z,18.23
2019-01-15T17:49:13.633Z,15.97
2019-01-15T17:51:46.304Z,15.17
2019-01-15T17:54:19.958Z,12.43
2019-01-15T17:56:51.670Z,13.80
2019-01-15T17:59:25.322Z,17.13
2019-01-15T18:01:58.315Z,13.60
2019-01-15T18:06:33.682Z,15.87
2019-01-15T18:09:06.607Z,16.30
2019-01-15T18:11:43.381Z,14.23
2019-01-15T18:14:16.266Z,15.40
2019-01-15T18:16:54.166Z,16.83
2019-01-15T18:19:28.240Z,14.37
2019-01-15T18:22:59.488Z,15.97
2019-01-15T18:25:32.369Z,15.27
2019-01-15T18:30:12.071Z,15.00
2019-01-15T18:32:58.895Z,13.60
2019-01-15T18:35:34.637Z,13.63
2019-01-15T18:38:09.413Z,13.43
2019-01-15T18:41:44.481Z,10.90
2019-01-15T18:44:18.160Z,13.47
2019-01-15T18:47:54.642Z,14.57
2019-01-15T18:50:32.548Z,15.73
2019-01-15T18:53:16.009Z,17.47
2019-01-15T18:56:05.748Z,15.20
2019-01-15T19:00:47.410Z,13.93
2019-01-15T19:03:21.170Z,13.97
2019-01-15T19:05:57.846Z,15.47
2019-01-15T19:08:35.323Z,16.27
2019-01-15T19:11:09.022Z,15.30
2019-01-15T19:13:43.032Z,15.97
2019-01-15T19:16:19.830Z,12.80
2019-01-15T19:18:52.773Z,11.63
2019-01-15T19:22:23.180Z,13.07
2019-01-15T19:24:57.999Z,12.23
2019-01-15T19:28:01.015Z,13.93
2019-01-15T19:30:37.861Z,12.83
2019-01-15T19:33:19.009Z,12.87
2019-01-15T19:35:52.327Z,15.70
2019-01-15T19:38:32.494Z,14.20
2019-01-15T19:41:12.677Z,13.90
2019-01-15T19:43:53.864Z,12.30
2019-01-15T19:47:10.474Z,16.00
2019-01-15T19:51:42.208Z,16.47
2019-01-15T19:54:16.792Z,15.80
2019-01-15T19:57:06.875Z,16.03
2019-01-15T19:59:56.940Z,16.10
2019-01-15T20:02:36.659Z,20.07
2019-01-15T20:05:20.142Z,15.23
2019-01-15T20:08:04.292Z,18.17
2019-01-15T20:10:38.135Z,15.47
2019-01-15T20:13:18.580Z,12.60
2019-01-15T20:15:52.446Z,11.73
2019-01-15T20:18:24.070Z,13.03
2019-01-15T20:20:56.823Z,12.00
2019-01-15T20:23:51.060Z,13.00
2019-01-15T20:26:43.156Z,12.33
2019-01-15T20:29:15.979Z,12.47
2019-01-15T20:31:48.700Z,13.67
2019-01-15T20:34:22.257Z,13.47
2019-01-15T20:37:58.205Z,12.40
2019-01-15T20:40:29.839Z,13.17
2019-01-15T20:43:05.636Z,14.13
2019-01-15T20:46:10.777Z,12.07
2019-01-15T20:48:55.356Z,10.10
2019-01-15T20:51:28.161Z,10.73
2019-01-15T20:54:00.984Z,10.83
2019-01-15T20:56:38.515Z,12.03
2019-01-15T20:59:12.772Z,12.30
2019-01-15T21:01:59.467Z,12.77
2019-01-15T21:04:32.547Z,12.87
2019-01-15T21:07:12.271Z,14.03
2019-01-15T21:09:44.801Z,14.37
2019-01-15T21:12:18.271Z,13.47
2019-01-15T21:14:54.174Z,13.30
2019-01-15T21:17:32.963Z,16.33
2019-01-15T21:20:11.570Z,13.63
2019-01-15T21:24:55.143Z,16.80
2019-01-15T21:27:27.948Z,13.77
2019-01-15T21:30:03.397Z,13.60
2019-01-15T21:32:36.218Z,12.90
2019-01-15T21:35:12.816Z,17.73
2019-01-15T21:37:47.576Z,14.53
2019-01-15T21:40:19.357Z,11.40
2019-01-15T21:42:52.250Z,13.00
2019-01-15T21:45:27.099Z,14.67
2019-01-15T21:48:03.709Z,11.33
2019-01-15T21:50:36.594Z,11.87
2019-01-15T21:53:08.316Z,11.83
2019-01-15T21:55:39.999Z,11.70
2019-01-15T21:58:11.914Z,11.63
2019-01-15T22:00:49.665Z,9.43
2019-01-15T22:03:30.229Z,13.77
2019-01-15T22:08:08.716Z,11.57
2019-01-15T22:11:21.536Z,10.67
2019-01-15T22:13:58.488Z,11.00
2019-01-15T22:16:33.787Z,10.80
2019-01-15T22:21:18.380Z,12.87
2019-01-15T22:23:55.609Z,10.80
2019-01-15T22:26:30.114Z,12.10
2019-01-15T22:29:17.169Z,12.10
2019-01-15T22:31:50.966Z,12.83
2019-01-15T22:34:25.865Z,12.93
2019-01-15T22:37:00.630Z,12.70
2019-01-15T22:39:34.566Z,12.20
2019-01-15T22:42:07.214Z,12.77
2019-01-15T22:44:40.115Z,13.77
2019-01-15T22:47:13.186Z,13.77
2019-01-15T22:49:48.787Z,14.07
2019-01-15T22:52:21.312Z,15.00
2019-01-15T22:54:53.995Z,13.17
2019-01-15T22:57:27.259Z,14.30
2019-01-15T23:00:00.258Z,12.57
2019-01-15T23:02:51.934Z,13.70
2019-01-15T23:07:33.400Z,13.60
2019-01-15T23:10:09.353Z,12.37
2019-01-15T23:12:43.139Z,14.70
2019-01-15T23:15:17.980Z,15.30
2019-01-15T23:17:54.035Z,14.77
2019-01-15T23:20:25.671Z,15.67
2019-01-15T23:22:59.388Z,14.07
2019-01-15T23:25:38.968Z,16.13
2019-01-15T23:28:15.473Z,12.67
2019-01-15T23:31:24.613Z,13.87
2019-01-15T23:34:04.040Z,12.27
2019-01-15T23:36:36.819Z,13.10
2019-01-15T23:39:11.105Z,13.13
2019-01-15T23:41:45.561Z,12.47
2019-01-15T23:44:18.075Z,10.83
2019-01-15T23:46:57.470Z,12.17
2019-01-15T23:49:32.963Z,13.27
2019-01-15T23:52:04.554Z,13.50
2019-01-15T23:54:41.086Z,12.30
2019-01-15T23:57:21.766Z,13.23
2019-01-15T23:59:55.183Z,12.73
